createdAt,value
2018-01-28T00:00:43.854Z,99.13
2018-01-28T00:03:13.745Z,94.87
2018-01-28T00:05:42.858Z,98.70
2018-01-28T00:08:12.725Z,96.90
2018-01-28T00:10:41.871Z,104.93
2018-01-28T00:13:10.947Z,95.80
2018-01-28T00:15:40.066Z,88.67
2018-01-28T00:18:09.171Z,92.93
2018-01-28T00:20:38.304Z,88.20
2018-01-28T00:23:07.385Z,90.57
2018-01-28T00:25:36.518Z,95.23
2018-01-28T00:28:06.443Z,100.70
2018-01-28T00:30:35.533Z,92.07
2018-01-28T00:33:04.619Z,91.03
2018-01-28T00:35:33.721Z,88.47
2018-01-28T00:38:02.839Z,90.27
2018-01-28T00:40:32.701Z,80.37
2018-01-28T00:43:01.821Z,96.20
2018-01-28T00:45:30.893Z,79.80
2018-01-28T00:48:00.038Z,91.00
2018-01-28T00:50:29.118Z,87.13
2018-01-28T00:52:58.308Z,77.90
2018-01-28T00:55:27.381Z,87.67
2018-01-28T00:57:56.474Z,88.07
2018-01-28T01:00:26.358Z,89.80
2018-01-28T01:02:55.463Z,90.30
2018-01-28T01:05:24.587Z,81.67
2018-01-28T01:07:53.686Z,99.13
2018-01-28T01:10:22.809Z,86.47
2018-01-28T01:12:51.913Z,79.53
2018-01-28T01:15:21.043Z,83.50
2018-01-28T01:17:50.133Z,81.20
2018-01-28T01:20:19.225Z,76.97
2018-01-28T01:22:48.355Z,76.00
2018-01-28T01:25:17.474Z,83.53
2018-01-28T01:27:46.572Z,75.27
2018-01-28T01:30:15.676Z,67.40
2018-01-28T01:32:44.778Z,74.37
2018-01-28T01:35:13.885Z,66.77
2018-01-28T01:37:43.768Z,68.97
2018-01-28T01:40:12.870Z,66.47
2018-01-28T01:42:41.965Z,64.17
2018-01-28T01:45:11.837Z,73.90
2018-01-28T01:47:40.940Z,63.43
2018-01-28T01:50:10.042Z,61.77
2018-01-28T01:52:39.148Z,66.07
2018-01-28T01:55:08.254Z,64.47
2018-01-28T01:57:37.376Z,67.23
2018-01-28T02:00:06.499Z,67.90
2018-01-28T02:02:35.609Z,63.47
2018-01-28T02:05:04.700Z,67.27
2018-01-28T02:07:33.806Z,65.03
2018-01-28T02:10:02.890Z,63.33
2018-01-28T02:12:32.013Z,58.47
2018-01-28T02:15:01.126Z,59.27
2018-01-28T02:17:31.010Z,62.57
2018-01-28T02:20:00.877Z,53.67
2018-01-28T02:22:29.981Z,49.70
2018-01-28T02:24:59.102Z,49.87
2018-01-28T02:27:28.380Z,51.93
2018-01-28T02:29:58.261Z,56.90
2018-01-28T02:32:27.353Z,55.10
2018-01-28T02:34:56.478Z,54.03
2018-01-28T02:37:25.571Z,55.47
2018-01-28T02:39:54.671Z,54.93
2018-01-28T02:42:23.774Z,65.73
2018-01-28T02:44:52.907Z,52.90
2018-01-28T02:47:22.010Z,58.77
2018-01-28T02:49:51.885Z,59.77
2018-01-28T02:52:21.754Z,51.77
2018-01-28T02:54:50.879Z,54.47
2018-01-28T02:57:19.993Z,51.50
2018-01-28T02:59:49.110Z,50.47
2018-01-28T03:02:18.212Z,48.70
2018-01-28T03:04:47.310Z,46.40
2018-01-28T03:07:16.429Z,43.73
2018-01-28T03:09:45.533Z,45.93
2018-01-28T03:12:14.618Z,43.40
2018-01-28T03:14:43.713Z,48.47
2018-01-28T03:17:12.850Z,46.87
2018-01-28T03:19:41.972Z,42.13
2018-01-28T03:22:11.057Z,47.73
2018-01-28T03:24:40.996Z,46.67
2018-01-28T03:27:10.817Z,40.27
2018-01-28T03:29:39.925Z,39.73
2018-01-28T03:32:09.229Z,47.60
2018-01-28T03:34:38.354Z,34.30
2018-01-28T03:37:07.454Z,34.37
2018-01-28T03:39:36.560Z,34.97
2018-01-28T03:42:05.661Z,40.20
2018-01-28T03:44:34.761Z,41.60
2018-01-28T03:47:03.873Z,36.33
2018-01-28T03:49:32.981Z,32.13
2018-01-28T03:52:02.077Z,37.83
2018-01-28T03:54:31.209Z,39.00
2018-01-28T03:57:00.293Z,31.10
2018-01-28T03:59:29.413Z,33.00
2018-01-28T04:01:58.497Z,34.40
2018-01-28T04:04:28.381Z,29.23
2018-01-28T04:06:57.499Z,33.30
2018-01-28T04:09:26.598Z,28.87
2018-01-28T04:11:55.749Z,34.23
2018-01-28T04:14:25.610Z,27.83
2018-01-28T04:16:54.733Z,25.67
2018-01-28T04:19:23.851Z,22.33
2018-01-28T04:21:52.962Z,27.00
2018-01-28T04:24:22.814Z,21.33
2018-01-28T04:26:52.719Z,23.10
2018-01-28T04:29:21.803Z,27.63
2018-01-28T04:31:50.921Z,21.60
2018-01-28T04:34:20.014Z,21.17
2018-01-28T04:36:49.169Z,20.70
2018-01-28T04:39:18.264Z,23.50
2018-01-28T04:41:47.361Z,20.47
2018-01-28T04:44:16.498Z,25.47
2018-01-28T04:46:45.577Z,24.50
2018-01-28T04:49:14.694Z,23.97
2018-01-28T04:51:43.794Z,20.97
2018-01-28T04:54:12.902Z,21.57
2018-01-28T04:56:42.774Z,20.37
2018-01-28T04:59:12.661Z,21.27
2018-01-28T05:01:41.743Z,20.83
2018-01-28T05:04:10.839Z,20.50
2018-01-28T05:06:39.952Z,24.13
2018-01-28T05:09:09.054Z,20.43
2018-01-28T05:11:38.161Z,16.97
2018-01-28T05:14:07.278Z,21.20
2018-01-28T05:16:36.371Z,21.90
2018-01-28T05:19:05.493Z,19.50
2018-01-28T05:21:34.601Z,18.03
2018-01-28T05:24:03.706Z,19.80
2018-01-28T05:26:32.801Z,16.50
2018-01-28T05:29:02.679Z,20.70
2018-01-28T05:31:31.776Z,19.10
2018-01-28T05:34:00.907Z,19.00
2018-01-28T05:36:29.993Z,17.80
2018-01-28T05:38:59.090Z,17.33
2018-01-28T05:41:28.198Z,16.90
2018-01-28T05:43:57.298Z,20.97
2018-01-28T05:46:26.402Z,15.73
2018-01-28T05:48:56.262Z,16.23
2018-01-28T05:51:25.403Z,16.00
2018-01-28T05:53:55.257Z,15.13
2018-01-28T05:56:24.401Z,14.50
2018-01-28T05:58:54.254Z,15.83
2018-01-28T06:01:23.347Z,14.17
2018-01-28T06:03:52.465Z,15.00
2018-01-28T06:06:21.611Z,17.70
2018-01-28T06:08:51.488Z,14.20
2018-01-28T06:11:20.598Z,15.93
2018-01-28T06:13:49.703Z,13.70
2018-01-28T06:16:18.787Z,18.23
2018-01-28T06:18:47.893Z,12.67
2018-01-28T06:21:17.772Z,17.17
2018-01-28T06:23:46.856Z,16.00
2018-01-28T06:26:15.970Z,21.27
2018-01-28T06:28:45.069Z,11.60
2018-01-28T06:31:14.181Z,18.07
2018-01-28T06:33:43.261Z,13.50
2018-01-28T06:36:12.378Z,13.17
2018-01-28T06:38:41.507Z,14.10
2018-01-28T06:41:10.621Z,12.10
2018-01-28T06:43:39.721Z,13.20
2018-01-28T06:46:08.823Z,16.20
2018-01-28T06:48:37.921Z,15.83
2018-01-28T06:51:07.041Z,11.90
2018-01-28T06:53:36.163Z,13.60
2018-01-28T06:56:05.262Z,14.90
2018-01-28T06:58:34.338Z,13.00
2018-01-28T07:01:03.453Z,13.60
2018-01-28T07:03:32.558Z,13.33
2018-01-28T07:06:01.692Z,12.70
2018-01-28T07:08:30.805Z,14.10
2018-01-28T07:10:59.889Z,14.87
2018-01-28T07:13:28.999Z,16.57
2018-01-28T07:15:58.101Z,15.13
2018-01-28T07:18:27.244Z,10.80
2018-01-28T07:20:56.334Z,12.93
2018-01-28T07:23:25.456Z,17.87
2018-01-28T07:25:54.608Z,12.73
2018-01-28T07:28:24.472Z,14.10
2018-01-28T07:30:53.564Z,14.40
2018-01-28T07:33:22.673Z,11.60
2018-01-28T07:35:51.776Z,15.03
2018-01-28T07:38:21.658Z,15.63
2018-01-28T07:40:50.762Z,14.10
2018-01-28T07:43:19.889Z,13.43
2018-01-28T07:45:48.978Z,11.83
2018-01-28T07:48:18.080Z,11.03
2018-01-28T07:50:48.117Z,14.50
2018-01-28T07:53:17.199Z,13.93
2018-01-28T07:55:46.438Z,10.50
2018-01-28T07:58:15.523Z,12.80
2018-01-28T08:00:44.634Z,11.83
2018-01-28T08:03:13.745Z,12.50
2018-01-28T08:05:42.867Z,13.03
2018-01-28T08:08:13.029Z,9.73
2018-01-28T08:11:01.927Z,15.40
2018-01-28T08:13:31.785Z,28.63
2018-01-28T08:16:00.873Z,14.07
2018-01-28T08:18:29.986Z,9.93
2018-01-28T08:20:59.842Z,13.50
2018-01-28T08:23:28.946Z,13.67
2018-01-28T08:25:58.048Z,16.80
2018-01-28T08:28:32.789Z,15.77
2018-01-28T08:31:01.894Z,15.10
2018-01-28T08:33:31.013Z,17.43
2018-01-28T08:36:00.103Z,14.40
2018-01-28T08:38:29.980Z,17.80
2018-01-28T08:40:59.082Z,12.60
2018-01-28T08:43:28.183Z,16.37
2018-01-28T08:45:57.286Z,14.90
2018-01-28T08:48:26.389Z,12.83
2018-01-28T08:50:55.517Z,17.00
2018-01-28T08:53:24.626Z,14.13
2018-01-28T08:55:53.745Z,16.20
2018-01-28T08:58:22.868Z,16.67
2018-01-28T09:00:52.017Z,12.43
2018-01-28T09:03:21.892Z,12.73
2018-01-28T09:05:51.024Z,14.23
2018-01-28T09:08:20.131Z,15.90
2018-01-28T09:10:49.236Z,20.50
2018-01-28T09:13:18.338Z,15.90
2018-01-28T09:15:47.476Z,12.47
2018-01-28T09:18:16.573Z,16.40
2018-01-28T09:20:45.673Z,14.80
2018-01-28T09:23:14.801Z,12.67
2018-01-28T09:25:43.895Z,13.57
2018-01-28T09:28:13.024Z,20.43
2018-01-28T09:30:42.897Z,14.87
2018-01-28T09:33:12.750Z,17.10
2018-01-28T09:35:41.856Z,19.37
2018-01-28T09:38:10.979Z,13.03
2018-01-28T09:40:40.078Z,21.73
2018-01-28T09:43:09.225Z,17.47
2018-01-28T09:45:38.350Z,14.33
2018-01-28T09:48:07.475Z,15.13
2018-01-28T09:50:36.564Z,15.70
2018-01-28T09:53:05.671Z,19.37
2018-01-28T09:55:34.792Z,14.77
2018-01-28T09:58:03.923Z,20.53
2018-01-28T10:00:33.797Z,18.20
2018-01-28T10:03:02.928Z,14.17
2018-01-28T10:05:32.042Z,14.97
2018-01-28T10:08:01.138Z,13.40
2018-01-28T10:10:30.271Z,26.20
2018-01-28T10:12:59.392Z,17.20
2018-01-28T10:15:28.500Z,11.80
2018-01-28T10:17:58.371Z,12.17
2018-01-28T10:20:27.460Z,18.67
2018-01-28T10:22:57.376Z,21.03
2018-01-28T10:25:27.266Z,12.30
2018-01-28T10:27:56.397Z,19.03
2018-01-28T10:30:26.254Z,12.37
2018-01-28T10:32:55.378Z,12.73
2018-01-28T10:35:24.485Z,14.80
2018-01-28T10:37:53.672Z,12.97
2018-01-28T10:40:22.775Z,12.90
2018-01-28T10:42:52.634Z,16.60
2018-01-28T10:45:21.796Z,14.60
2018-01-28T10:47:50.915Z,19.53
2018-01-28T10:50:20.796Z,28.93
2018-01-28T10:52:51.478Z,28.13
2018-01-28T10:55:21.434Z,18.87
2018-01-28T10:57:50.554Z,20.47
2018-01-28T11:00:19.675Z,26.13
2018-01-28T11:02:48.769Z,15.03
2018-01-28T11:05:17.892Z,24.10
2018-01-28T11:07:47.000Z,13.60
2018-01-28T11:10:16.131Z,25.33
2018-01-28T11:12:45.243Z,18.00
2018-01-28T11:15:14.394Z,16.50
2018-01-28T11:17:43.492Z,13.67
2018-01-28T11:20:13.408Z,13.67
2018-01-28T11:22:42.593Z,18.30
2018-01-28T11:25:11.742Z,15.07
2018-01-28T11:27:41.604Z,26.70
2018-01-28T11:30:10.734Z,24.80
2018-01-28T11:32:39.869Z,15.67
2018-01-28T11:35:08.998Z,18.00
2018-01-28T11:37:38.874Z,16.00
2018-01-28T11:40:07.985Z,15.80
2018-01-28T11:42:37.134Z,14.67
2018-01-28T11:45:06.999Z,11.00
2018-01-28T11:47:36.133Z,13.67
2018-01-28T11:50:05.236Z,12.40
2018-01-28T11:52:34.332Z,15.47
2018-01-28T11:55:03.454Z,14.93
2018-01-28T11:57:32.591Z,29.10
2018-01-28T12:00:02.568Z,18.87
2018-01-28T12:02:31.701Z,16.20
2018-01-28T12:05:00.810Z,14.30
2018-01-28T12:07:29.951Z,20.10
2018-01-28T12:09:59.031Z,15.30
2018-01-28T12:12:28.153Z,16.93
2018-01-28T12:14:57.263Z,18.00
2018-01-28T12:17:26.370Z,17.87
2018-01-28T12:19:55.506Z,19.33
2018-01-28T12:22:25.389Z,20.30
2018-01-28T12:24:55.288Z,16.40
2018-01-28T12:27:24.382Z,16.20
2018-01-28T12:29:53.505Z,17.03
2018-01-28T12:32:22.665Z,16.50
2018-01-28T12:34:51.767Z,25.03
2018-01-28T12:37:20.877Z,22.20
2018-01-28T12:39:49.998Z,17.40
2018-01-28T12:42:19.104Z,22.97
2018-01-28T12:44:48.984Z,16.63
2018-01-28T12:47:18.146Z,19.43
2018-01-28T12:49:48.130Z,22.93
2018-01-28T12:52:17.246Z,18.03
2018-01-28T12:54:46.392Z,18.67
2018-01-28T12:57:16.290Z,15.60
2018-01-28T12:59:45.404Z,14.90
2018-01-28T13:02:14.503Z,15.33
2018-01-28T13:04:43.627Z,17.87
2018-01-28T13:07:12.747Z,16.27
2018-01-28T13:09:42.615Z,15.53
2018-01-28T13:12:11.772Z,15.63
2018-01-28T13:14:40.860Z,13.60
2018-01-28T13:17:10.005Z,22.53
2018-01-28T13:19:39.102Z,13.93
2018-01-28T13:22:08.243Z,18.37
2018-01-28T13:24:38.162Z,15.83
2018-01-28T13:27:08.040Z,16.70
2018-01-28T13:29:37.903Z,13.73
2018-01-28T13:32:07.772Z,13.27
2018-01-28T13:34:36.888Z,14.00
2018-01-28T13:37:05.989Z,15.50
2018-01-28T13:39:35.119Z,15.50
2018-01-28T13:42:04.262Z,18.60
2018-01-28T13:44:33.376Z,10.63
2018-01-28T13:47:03.271Z,14.83
2018-01-28T13:49:32.385Z,13.63
2018-01-28T13:52:01.476Z,11.23
2018-01-28T13:54:30.610Z,14.00
2018-01-28T13:56:59.779Z,17.37
2018-01-28T13:59:28.882Z,10.80
2018-01-28T14:01:57.989Z,11.60
2018-01-28T14:04:27.120Z,10.90
2018-01-28T14:06:56.215Z,9.13
2018-01-28T14:09:25.310Z,8.40
2018-01-28T14:11:54.427Z,10.20
2018-01-28T14:14:23.530Z,6.93
2018-01-28T14:16:52.632Z,7.07
2018-01-28T14:19:21.727Z,8.67
2018-01-28T14:21:51.616Z,8.43
2018-01-28T14:24:20.702Z,13.13
2018-01-28T14:26:49.842Z,10.43
2018-01-28T14:29:18.930Z,6.43
2018-01-28T14:31:48.544Z,13.63
2018-01-28T14:34:17.671Z,8.70
2018-01-28T14:36:46.838Z,8.10
2018-01-28T14:39:15.954Z,7.50
2018-01-28T14:41:45.066Z,9.97
2018-01-28T14:44:14.197Z,7.47
2018-01-28T14:46:43.285Z,8.53
2018-01-28T14:49:12.409Z,9.00
2018-01-28T14:51:42.630Z,7.47
2018-01-28T14:54:11.730Z,8.90
2018-01-28T14:56:40.867Z,11.30
2018-01-28T14:59:09.951Z,9.40
2018-01-28T15:01:39.074Z,7.20
2018-01-28T15:04:08.221Z,8.97
2018-01-28T15:06:37.384Z,6.90
2018-01-28T15:09:06.516Z,10.87
2018-01-28T15:11:35.636Z,8.20
2018-01-28T15:14:05.551Z,10.60
2018-01-28T15:16:34.655Z,10.93
2018-01-28T15:19:03.781Z,9.60
2018-01-28T15:21:32.877Z,11.73
2018-01-28T15:24:02.764Z,9.57
2018-01-28T15:26:31.912Z,10.33
2018-01-28T15:29:01.024Z,9.60
2018-01-28T15:31:30.195Z,9.30
2018-01-28T15:33:59.285Z,11.23
2018-01-28T15:36:29.168Z,8.47
2018-01-28T15:38:58.262Z,13.00
2018-01-28T15:41:28.174Z,18.30
2018-01-28T15:43:57.263Z,15.30
2018-01-28T15:46:26.389Z,12.00
2018-01-28T15:48:55.483Z,11.10
2018-01-28T15:51:24.609Z,14.03
2018-01-28T15:53:53.715Z,13.90
2018-01-28T15:56:22.839Z,14.57
2018-01-28T15:58:51.926Z,11.33
2018-01-28T16:01:21.038Z,8.97
2018-01-28T16:03:50.149Z,9.37
2018-01-28T16:06:19.258Z,10.50
2018-01-28T16:08:48.391Z,10.87
2018-01-28T16:11:17.489Z,9.70
2018-01-28T16:13:46.621Z,8.70
2018-01-28T16:16:15.750Z,12.60
2018-01-28T16:18:44.876Z,13.67
2018-01-28T16:21:14.786Z,12.10
2018-01-28T16:23:43.891Z,11.47
2018-01-28T16:26:12.991Z,12.67
2018-01-28T16:28:42.114Z,7.83
2018-01-28T16:31:11.236Z,11.00
2018-01-28T16:33:41.097Z,10.40
2018-01-28T16:36:10.222Z,7.20
2018-01-28T16:38:39.316Z,9.40
2018-01-28T16:41:08.466Z,9.47
2018-01-28T16:43:37.581Z,8.07
2018-01-28T16:46:06.709Z,7.23
2018-01-28T16:48:36.600Z,6.73
2018-01-28T16:51:05.753Z,9.43
2018-01-28T16:53:34.861Z,6.83
2018-01-28T16:56:04.001Z,9.50
2018-01-28T16:58:33.119Z,5.37
2018-01-28T17:01:02.224Z,6.77
2018-01-28T17:03:31.388Z,4.73
2018-01-28T17:06:01.286Z,6.00
2018-01-28T17:08:30.440Z,6.17
2018-01-28T17:11:00.321Z,8.60
2018-01-28T17:13:29.449Z,4.73
2018-01-28T17:15:58.546Z,4.60
2018-01-28T17:18:27.678Z,5.00
2018-01-28T17:20:57.542Z,7.87
2018-01-28T17:23:26.666Z,8.20
2018-01-28T17:25:55.763Z,4.27
2018-01-28T17:28:24.864Z,4.90
2018-01-28T17:30:53.966Z,4.00
2018-01-28T17:33:23.086Z,2.97
2018-01-28T17:35:52.203Z,4.00
2018-01-28T17:38:21.371Z,4.97
2018-01-28T17:40:51.242Z,4.50
2018-01-28T17:43:20.353Z,3.70
2018-01-28T17:45:49.490Z,3.77
2018-01-28T17:48:18.598Z,3.63
2018-01-28T17:50:47.750Z,4.90
2018-01-28T17:53:16.842Z,3.50
2018-01-28T17:55:45.999Z,3.97
2018-01-28T17:58:15.090Z,10.23
2018-01-28T18:00:44.214Z,4.20
2018-01-28T18:03:13.334Z,4.13
2018-01-28T18:05:42.477Z,4.73
2018-01-28T18:08:12.361Z,4.40
2018-01-28T18:10:41.488Z,4.40
2018-01-28T18:13:10.584Z,3.73
2018-01-28T18:15:39.687Z,3.93
2018-01-28T18:18:08.841Z,3.30
2018-01-28T18:20:37.904Z,4.73
2018-01-28T18:23:07.010Z,4.50
2018-01-28T18:25:36.124Z,2.57
2018-01-28T18:28:06.028Z,3.50
2018-01-28T18:30:35.131Z,3.73
2018-01-28T18:33:04.252Z,4.53
2018-01-28T18:35:33.413Z,6.63
2018-01-28T18:38:02.524Z,2.80
2018-01-28T18:40:31.663Z,4.90
2018-01-28T18:43:00.778Z,2.80
2018-01-28T18:45:29.882Z,4.13
2018-01-28T18:47:58.996Z,2.10
2018-01-28T18:50:28.076Z,3.13
2018-01-28T18:52:58.003Z,4.57
2018-01-28T18:55:27.129Z,5.07
2018-01-28T18:57:57.063Z,3.40
2018-01-28T19:00:26.201Z,3.50
2018-01-28T19:02:55.382Z,3.10
2018-01-28T19:05:24.458Z,2.97
2018-01-28T19:07:54.344Z,6.57
2018-01-28T19:10:23.462Z,2.20
2018-01-28T19:12:52.580Z,4.27
2018-01-28T19:15:21.721Z,4.33
2018-01-28T19:17:50.841Z,2.50
2018-01-28T19:20:20.792Z,3.80
2018-01-28T19:22:49.926Z,3.47
2018-01-28T19:25:19.112Z,3.27
2018-01-28T19:27:48.265Z,4.90
2018-01-28T19:30:17.384Z,2.70
2018-01-28T19:32:46.528Z,6.37
2018-01-28T19:35:16.405Z,3.70
2018-01-28T19:37:45.514Z,3.67
2018-01-28T19:40:14.673Z,4.53
2018-01-28T19:42:43.770Z,3.13
2018-01-28T19:45:13.642Z,4.30
2018-01-28T19:47:42.765Z,3.53
2018-01-28T19:50:11.919Z,2.73
2018-01-28T19:52:41.797Z,2.40
2018-01-28T19:55:10.967Z,3.07
2018-01-28T19:57:40.840Z,3.77
2018-01-28T20:00:09.987Z,4.07
2018-01-28T20:02:39.121Z,2.77
2018-01-28T20:05:08.228Z,3.67
2018-01-28T20:07:37.356Z,3.00
2018-01-28T20:10:06.501Z,2.80
2018-01-28T20:12:35.636Z,3.23
2018-01-28T20:15:05.518Z,3.07
2018-01-28T20:17:34.643Z,4.43
2018-01-28T20:20:03.737Z,2.57
2018-01-28T20:22:32.882Z,2.73
2018-01-28T20:25:02.798Z,3.60
2018-01-28T20:27:31.919Z,4.30
2018-01-28T20:30:01.775Z,2.37
2018-01-28T20:32:30.894Z,3.17
2018-01-28T20:35:00.041Z,2.77
2018-01-28T20:37:29.169Z,7.03
2018-01-28T20:39:59.068Z,2.50
2018-01-28T20:42:28.200Z,4.03
2018-01-28T20:44:57.334Z,2.70
2018-01-28T20:47:27.224Z,3.73
2018-01-28T20:49:56.343Z,3.07
2018-01-28T20:52:26.208Z,2.60
2018-01-28T20:54:55.363Z,2.57
2018-01-28T20:57:24.480Z,4.90
2018-01-28T20:59:53.612Z,4.50
2018-01-28T21:02:23.471Z,3.50
2018-01-28T21:04:52.617Z,3.87
2018-01-28T21:07:21.772Z,2.53
2018-01-28T21:09:51.716Z,3.90
2018-01-28T21:12:20.816Z,3.40
2018-01-28T21:14:50.741Z,3.90
2018-01-28T21:17:19.858Z,4.97
2018-01-28T21:19:48.974Z,3.20
2018-01-28T21:22:18.071Z,4.07
2018-01-28T21:24:47.203Z,3.43
2018-01-28T21:27:16.332Z,2.33
2018-01-28T21:29:45.439Z,3.60
2018-01-28T21:32:14.577Z,3.97
2018-01-28T21:34:43.713Z,3.30
2018-01-28T21:37:12.829Z,3.70
2018-01-28T21:39:41.937Z,2.70
2018-01-28T21:42:11.054Z,4.03
2018-01-28T21:44:40.179Z,3.30
2018-01-28T21:47:09.321Z,4.33
2018-01-28T21:49:38.405Z,3.33
2018-01-28T21:52:07.563Z,2.90
2018-01-28T21:54:37.412Z,3.83
2018-01-28T21:57:06.511Z,5.43
2018-01-28T21:59:35.629Z,3.77
2018-01-28T22:02:04.735Z,2.83
2018-01-28T22:04:33.849Z,3.50
2018-01-28T22:07:02.984Z,3.30
2018-01-28T22:09:32.098Z,4.07
2018-01-28T22:12:01.232Z,4.20
2018-01-28T22:14:30.353Z,4.07
2018-01-28T22:16:59.455Z,2.50
2018-01-28T22:19:28.560Z,5.17
2018-01-28T22:21:57.669Z,2.67
2018-01-28T22:24:26.783Z,2.63
2018-01-28T22:26:56.659Z,5.93
2018-01-28T22:29:25.823Z,3.07
2018-01-28T22:31:54.918Z,4.10
2018-01-28T22:34:24.002Z,3.37
2018-01-28T22:36:53.102Z,4.73
2018-01-28T22:39:22.230Z,3.70
2018-01-28T22:41:51.319Z,3.80
2018-01-28T22:44:20.417Z,3.40
2018-01-28T22:46:49.563Z,3.27
2018-01-28T22:49:18.675Z,8.27
2018-01-28T22:51:47.769Z,4.83
2018-01-28T22:54:16.912Z,4.20
2018-01-28T22:56:46.009Z,4.33
2018-01-28T22:59:15.125Z,3.50
2018-01-28T23:01:44.216Z,3.90
2018-01-28T23:04:13.310Z,5.00
2018-01-28T23:06:42.413Z,3.50
2018-01-28T23:09:12.274Z,2.93
2018-01-28T23:11:42.142Z,2.70
2018-01-28T23:14:11.303Z,4.73
2018-01-28T23:16:40.386Z,2.80
2018-01-28T23:19:09.490Z,6.30
2018-01-28T23:21:38.602Z,2.87
2018-01-28T23:24:07.679Z,4.53
2018-01-28T23:26:36.809Z,4.27
2018-01-28T23:29:05.981Z,4.20
2018-01-28T23:31:35.091Z,3.50
2018-01-28T23:34:04.183Z,2.30
2018-01-28T23:36:33.288Z,6.67
2018-01-28T23:39:03.139Z,3.20
2018-01-28T23:41:32.251Z,2.03
2018-01-28T23:44:01.338Z,1.90
2018-01-28T23:46:30.444Z,8.43
2018-01-28T23:49:00.328Z,4.13
2018-01-28T23:51:30.171Z,5.07
2018-01-28T23:53:59.288Z,3.83
2018-01-28T23:56:28.386Z,3.60
2018-01-28T23:58:57.494Z,6.83
